createdAt,value
2018-10-12T00:04:00.505Z,10.22
2018-10-12T00:09:04.819Z,10.15
2018-10-12T00:14:08.113Z,10.09
2018-10-12T00:19:11.335Z,10.05
2018-10-12T00:24:14.880Z,9.91
2018-10-12T00:29:18.085Z,9.70
2018-10-12T00:34:21.352Z,9.49
2018-10-12T00:39:24.591Z,9.36
2018-10-12T00:44:27.947Z,9.25
2018-10-12T00:49:31.249Z,9.17
2018-10-12T00:54:34.434Z,9.01
2018-10-12T00:59:37.684Z,8.98
2018-10-12T01:04:40.878Z,8.94
2018-10-12T01:09:44.167Z,8.77
2018-10-12T01:14:47.386Z,8.65
2018-10-12T01:19:51.563Z,8.57
2018-10-12T01:24:55.029Z,8.59
2018-10-12T01:29:58.321Z,8.63
2018-10-12T01:35:01.563Z,8.79
2018-10-12T01:40:04.765Z,8.81
2018-10-12T01:45:08.044Z,8.63
2018-10-12T01:50:11.292Z,8.47
2018-10-12T01:55:14.699Z,8.44
2018-10-12T02:00:17.913Z,8.43
2018-10-12T02:05:22.751Z,8.39
2018-10-12T02:10:26.093Z,8.14
2018-10-12T02:15:29.324Z,7.92
2018-10-12T02:20:32.538Z,7.91
2018-10-12T02:25:35.772Z,7.82
2018-10-12T02:30:39.174Z,7.88
2018-10-12T02:35:42.445Z,7.97
2018-10-12T02:40:45.817Z,7.73
2018-10-12T02:45:50.002Z,7.60
2018-10-12T02:50:53.197Z,7.63
2018-10-12T02:55:56.349Z,7.54
2018-10-12T03:00:59.515Z,7.35
2018-10-12T03:06:02.710Z,7.30
2018-10-12T03:11:05.932Z,7.16
2018-10-12T03:16:09.312Z,7.15
2018-10-12T03:21:12.791Z,7.28
2018-10-12T03:26:16.067Z,7.29
2018-10-12T03:31:19.534Z,7.21
2018-10-12T03:36:22.735Z,7.09
2018-10-12T03:41:25.907Z,6.92
2018-10-12T03:46:38.806Z,6.85
2018-10-12T03:51:42.065Z,6.73
2018-10-12T03:56:45.364Z,6.64
2018-10-12T04:01:51.139Z,6.62
2018-10-12T04:06:54.620Z,6.51
2018-10-12T04:11:57.833Z,6.61
2018-10-12T04:17:00.984Z,6.71
2018-10-12T04:22:04.690Z,6.55
2018-10-12T04:27:08.469Z,6.56
2018-10-12T04:37:22.459Z,6.53
2018-10-12T04:42:27.206Z,6.45
2018-10-12T04:47:30.463Z,6.31
2018-10-12T04:52:33.697Z,6.35
2018-10-12T04:57:36.913Z,6.54
2018-10-12T05:02:40.230Z,6.48
2018-10-12T05:07:43.582Z,6.61
2018-10-12T05:12:46.762Z,6.63
2018-10-12T05:17:49.966Z,6.59
2018-10-12T05:22:53.233Z,6.47
2018-10-12T05:27:56.519Z,6.48
2018-10-12T05:32:59.777Z,6.38
2018-10-12T05:38:03.763Z,6.33
2018-10-12T05:43:07.391Z,6.37
2018-10-12T05:48:22.175Z,6.51
2018-10-12T05:53:25.815Z,6.53
2018-10-12T05:58:29.065Z,6.73
2018-10-12T06:03:32.991Z,6.84
2018-10-12T06:08:36.318Z,6.87
2018-10-12T06:13:39.484Z,6.99
2018-10-12T06:18:42.750Z,7.04
2018-10-12T06:23:45.914Z,7.22
2018-10-12T06:28:49.206Z,7.47
2018-10-12T06:33:52.791Z,7.65
2018-10-12T06:38:56.641Z,7.74
2018-10-12T06:43:59.864Z,7.94
2018-10-12T06:49:03.453Z,8.26
2018-10-12T06:54:07.267Z,8.56
2018-10-12T06:59:10.486Z,8.94
2018-10-12T07:04:13.906Z,9.30
2018-10-12T07:09:17.151Z,9.73
2018-10-12T07:14:20.369Z,10.16
2018-10-12T07:19:23.539Z,10.65
2018-10-12T07:24:26.850Z,11.04
2018-10-12T07:29:30.022Z,11.49
2018-10-12T07:34:33.497Z,11.96
2018-10-12T07:39:36.666Z,12.38
2018-10-12T07:44:39.888Z,12.74
2018-10-12T07:49:43.116Z,13.07
2018-10-12T07:54:46.379Z,13.57
2018-10-12T07:59:49.678Z,14.02
2018-10-12T08:04:52.874Z,14.33
2018-10-12T08:09:56.039Z,14.62
2018-10-12T08:14:59.214Z,14.85
2018-10-12T08:20:04.016Z,15.20
2018-10-12T08:25:07.268Z,15.48
2018-10-12T08:30:11.052Z,15.64
2018-10-12T08:35:16.316Z,15.92
2018-10-12T08:40:19.579Z,16.31
2018-10-12T08:45:22.736Z,16.60
2018-10-12T08:50:26.034Z,16.79
2018-10-12T08:55:29.282Z,17.07
2018-10-12T09:00:32.400Z,17.39
2018-10-12T09:05:35.594Z,17.63
2018-10-12T09:10:39.774Z,18.05
2018-10-12T09:15:43.058Z,18.12
2018-10-12T09:20:46.530Z,18.45
2018-10-12T09:25:49.726Z,18.66
2018-10-12T09:30:52.897Z,19.01
2018-10-12T09:35:56.220Z,19.06
2018-10-12T09:40:59.382Z,19.50
2018-10-12T09:46:02.534Z,19.77
2018-10-12T09:51:05.762Z,20.90
2018-10-12T09:56:09.095Z,23.66
2018-10-12T10:01:12.406Z,25.17
2018-10-12T10:06:15.570Z,25.69
2018-10-12T10:11:18.791Z,25.86
2018-10-12T10:16:22.038Z,26.43
2018-10-12T10:21:25.166Z,27.03
2018-10-12T10:26:28.393Z,27.72
2018-10-12T10:31:31.553Z,27.29
2018-10-12T10:36:34.870Z,27.77
2018-10-12T10:41:38.224Z,27.48
2018-10-12T10:46:41.941Z,27.78
2018-10-12T10:51:45.117Z,27.63
2018-10-12T10:56:48.292Z,27.32
2018-10-12T11:01:51.524Z,27.59
2018-10-12T11:06:54.803Z,27.64
2018-10-12T11:11:58.311Z,27.62
2018-10-12T11:17:01.514Z,26.99
2018-10-12T11:22:05.311Z,26.91
2018-10-12T11:27:08.611Z,26.41
2018-10-12T11:32:11.868Z,26.49
2018-10-12T11:37:15.025Z,26.42
2018-10-12T11:42:18.361Z,26.20
2018-10-12T11:47:21.499Z,26.29
2018-10-12T11:52:24.720Z,26.13
2018-10-12T11:57:27.887Z,26.20
2018-10-12T12:02:31.082Z,26.51
2018-10-12T12:07:34.316Z,26.51
2018-10-12T12:12:37.684Z,26.57
2018-10-12T12:17:40.864Z,26.73
2018-10-12T12:22:44.171Z,26.82
2018-10-12T12:27:47.326Z,26.84
2018-10-12T12:32:50.558Z,27.08
2018-10-12T12:37:53.831Z,26.64
2018-10-12T12:42:57.018Z,26.70
2018-10-12T12:48:00.428Z,27.03
2018-10-12T12:53:03.614Z,27.06
2018-10-12T12:58:06.902Z,27.19
2018-10-12T13:03:10.136Z,26.90
2018-10-12T13:08:13.364Z,26.87
2018-10-12T13:13:16.965Z,27.01
2018-10-12T13:18:20.209Z,27.05
2018-10-12T13:23:23.444Z,26.90
2018-10-12T13:28:26.784Z,26.75
2018-10-12T13:33:30.148Z,26.65
2018-10-12T13:38:33.389Z,26.80
2018-10-12T13:43:36.695Z,26.73
2018-10-12T13:48:39.872Z,26.95
2018-10-12T13:53:43.081Z,26.87
2018-10-12T13:58:46.281Z,26.93
2018-10-12T14:03:49.459Z,26.78
2018-10-12T14:08:52.611Z,26.88
2018-10-12T14:13:55.846Z,26.97
2018-10-12T14:18:59.208Z,26.86
2018-10-12T14:24:02.519Z,26.75
2018-10-12T14:29:05.795Z,26.67
2018-10-12T14:34:09.082Z,26.76
2018-10-12T14:39:12.457Z,26.68
2018-10-12T14:44:15.913Z,26.43
2018-10-12T14:49:19.128Z,26.49
2018-10-12T14:54:22.346Z,26.31
2018-10-12T14:59:25.654Z,26.13
2018-10-12T15:04:28.989Z,25.99
2018-10-12T15:09:32.107Z,25.80
2018-10-12T15:14:46.504Z,25.62
2018-10-12T15:19:49.682Z,25.26
2018-10-12T15:24:52.908Z,24.92
2018-10-12T15:29:56.084Z,24.55
2018-10-12T15:34:59.338Z,24.16
2018-10-12T15:40:04.089Z,23.62
2018-10-12T15:45:07.412Z,23.15
2018-10-12T15:50:10.590Z,22.69
2018-10-12T15:55:13.896Z,22.40
2018-10-12T16:00:17.744Z,22.01
2018-10-12T16:05:21.026Z,21.61
2018-10-12T16:10:24.323Z,21.10
2018-10-12T16:15:27.737Z,20.66
2018-10-12T16:20:31.090Z,20.25
2018-10-12T16:25:54.303Z,19.82
2018-10-12T16:30:57.744Z,19.34
2018-10-12T16:36:01.055Z,18.97
2018-10-12T16:41:04.164Z,18.66
2018-10-12T16:46:07.565Z,18.43
2018-10-12T16:51:10.799Z,18.09
2018-10-12T16:56:14.147Z,17.77
2018-10-12T17:01:17.473Z,17.56
2018-10-12T17:06:21.622Z,17.29
2018-10-12T17:11:24.951Z,16.95
2018-10-12T17:16:28.467Z,16.59
2018-10-12T17:21:32.152Z,16.37
2018-10-12T17:26:35.495Z,16.16
2018-10-12T17:31:38.788Z,15.94
2018-10-12T17:36:42.517Z,15.77
2018-10-12T17:41:45.888Z,15.65
2018-10-12T17:46:49.318Z,15.49
2018-10-12T17:51:52.719Z,15.35
2018-10-12T17:56:56.091Z,15.24
2018-10-12T18:01:59.486Z,15.09
2018-10-12T18:07:02.925Z,14.90
2018-10-12T18:12:06.281Z,14.77
2018-10-12T18:17:09.582Z,14.57
2018-10-12T18:22:18.589Z,14.50
2018-10-12T18:27:21.860Z,14.31
2018-10-12T18:32:25.116Z,14.11
2018-10-12T18:37:28.590Z,13.93
2018-10-12T18:42:32.202Z,13.78
2018-10-12T18:47:35.479Z,13.71
2018-10-12T18:52:39.573Z,13.58
2018-10-12T18:57:42.952Z,13.52
2018-10-12T19:02:46.219Z,13.45
2018-10-12T19:07:49.725Z,13.32
2018-10-12T19:12:55.138Z,13.14
2018-10-12T19:23:33.150Z,12.98
2018-10-12T19:28:43.433Z,12.97
2018-10-12T19:33:46.754Z,12.85
2018-10-12T19:38:50.038Z,12.76
2018-10-12T19:43:53.350Z,12.62
2018-10-12T19:48:56.676Z,12.51
2018-10-12T19:54:00.223Z,12.37
2018-10-12T19:59:03.786Z,12.27
2018-10-12T20:04:07.204Z,12.16
2018-10-12T20:09:10.454Z,12.02
2018-10-12T20:14:13.736Z,11.88
2018-10-12T20:19:17.113Z,11.74
2018-10-12T20:24:20.495Z,11.67
2018-10-12T20:29:24.327Z,11.60
2018-10-12T20:34:28.239Z,11.44
2018-10-12T20:39:31.591Z,11.31
2018-10-12T20:44:35.018Z,11.29
2018-10-12T20:49:42.417Z,11.16
2018-10-12T20:54:46.525Z,11.10
2018-10-12T20:59:49.791Z,11.04
2018-10-12T21:04:54.765Z,10.96
2018-10-12T21:09:58.171Z,10.89
2018-10-12T21:15:01.394Z,10.81
2018-10-12T21:20:05.221Z,10.74
2018-10-12T21:25:08.867Z,10.61
2018-10-12T21:30:12.037Z,10.49
2018-10-12T21:35:15.237Z,10.47
2018-10-12T21:40:18.551Z,10.35
2018-10-12T21:45:21.701Z,10.29
2018-10-12T21:50:25.141Z,10.26
2018-10-12T21:55:28.561Z,10.16
2018-10-12T22:00:31.770Z,10.06
2018-10-12T22:05:34.989Z,10.07
2018-10-12T22:10:38.323Z,10.01
2018-10-12T22:15:41.495Z,9.92
2018-10-12T22:20:44.692Z,9.82
2018-10-12T22:25:47.844Z,9.73
2018-10-12T22:30:51.449Z,9.68
2018-10-12T22:35:54.667Z,9.58
2018-10-12T22:40:57.980Z,9.55
2018-10-12T22:46:01.173Z,9.53
2018-10-12T22:51:04.918Z,9.48
2018-10-12T22:56:08.292Z,9.47
2018-10-12T23:01:11.528Z,9.42
2018-10-12T23:06:14.725Z,9.30
2018-10-12T23:11:18.268Z,9.25
2018-10-12T23:16:21.407Z,9.11
2018-10-12T23:21:24.582Z,9.05
2018-10-12T23:26:27.801Z,9.01
2018-10-12T23:31:31.024Z,8.90
2018-10-12T23:36:34.216Z,8.85
2018-10-12T23:41:37.471Z,8.79
2018-10-12T23:46:40.645Z,8.70
2018-10-12T23:51:43.841Z,8.62
2018-10-12T23:56:47.138Z,8.60
